createdAt,value
2022-12-09T00:01:39.292Z,10.50
2022-12-09T00:04:08.515Z,11.75
2022-12-09T00:06:37.850Z,11.27
2022-12-09T00:09:07.085Z,12.50
2022-12-09T00:11:37.591Z,13.77
2022-12-09T00:14:06.951Z,12.97
2022-12-09T00:16:36.090Z,12.73
2022-12-09T00:19:05.369Z,14.55
2022-12-09T00:21:35.419Z,13.80
2022-12-09T00:24:05.635Z,13.65
2022-12-09T00:26:36.780Z,15.10
2022-12-09T00:29:08.154Z,11.80
2022-12-09T00:31:38.874Z,11.88
2022-12-09T00:34:09.536Z,12.30
2022-12-09T00:36:40.649Z,11.07
2022-12-09T00:39:10.232Z,11.68
2022-12-09T00:41:39.446Z,11.18
2022-12-09T00:44:10.032Z,10.45
2022-12-09T00:49:09.196Z,10.35
2022-12-09T00:51:38.631Z,10.32
2022-12-09T00:54:07.875Z,11.02
2022-12-09T00:56:37.721Z,11.80
2022-12-09T00:59:07.549Z,11.20
2022-12-09T01:01:38.231Z,9.70
2022-12-09T01:04:09.702Z,11.07
2022-12-09T01:06:39.036Z,10.75
2022-12-09T01:09:08.554Z,11.27
2022-12-09T01:11:38.135Z,10.27
2022-12-09T01:14:09.007Z,11.27
2022-12-09T01:16:39.724Z,9.38
2022-12-09T01:19:09.984Z,9.98
2022-12-09T01:21:39.340Z,9.45
2022-12-09T01:24:10.248Z,9.25
2022-12-09T01:26:40.847Z,10.13
2022-12-09T01:29:10.363Z,9.90
2022-12-09T01:31:41.596Z,9.23
2022-12-09T01:34:11.287Z,10.10
2022-12-09T01:36:40.827Z,10.60
2022-12-09T01:39:09.841Z,8.45
2022-12-09T01:41:38.982Z,10.60
2022-12-09T01:44:12.399Z,9.43
2022-12-09T01:46:43.137Z,9.30
2022-12-09T01:49:14.379Z,8.70
2022-12-09T01:51:45.164Z,7.97
2022-12-09T01:54:16.913Z,10.85
2022-12-09T01:56:47.125Z,8.87
2022-12-09T01:59:17.143Z,10.15
2022-12-09T02:01:50.019Z,9.63
2022-12-09T02:04:19.842Z,10.98
2022-12-09T02:06:49.137Z,10.95
2022-12-09T02:09:22.191Z,9.27
2022-12-09T02:12:01.561Z,9.43
2022-12-09T02:14:33.563Z,11.55
2022-12-09T02:17:15.527Z,13.05
2022-12-09T02:19:51.143Z,13.10
2022-12-09T02:22:23.563Z,14.73
2022-12-09T02:24:57.922Z,13.73
2022-12-09T02:27:30.588Z,12.90
2022-12-09T02:30:08.886Z,10.13
2022-12-09T02:32:49.118Z,11.68
2022-12-09T02:35:22.577Z,11.35
2022-12-09T02:37:56.541Z,9.25
2022-12-09T02:40:28.699Z,10.25
2022-12-09T02:42:58.579Z,10.05
2022-12-09T02:45:30.628Z,10.52
2022-12-09T02:48:03.875Z,13.77
2022-12-09T02:50:36.825Z,10.60
2022-12-09T02:53:08.646Z,12.10
2022-12-09T02:58:07.364Z,11.07
2022-12-09T03:00:39.449Z,9.60
2022-12-09T03:03:09.939Z,8.80
2022-12-09T03:05:45.642Z,9.88
2022-12-09T03:08:17.897Z,9.63
2022-12-09T03:10:54.223Z,9.20
2022-12-09T03:13:27.335Z,10.43
2022-12-09T03:15:59.627Z,9.43
2022-12-09T03:18:31.317Z,9.52
2022-12-09T03:21:03.216Z,10.23
2022-12-09T03:23:33.827Z,8.75
2022-12-09T03:26:06.688Z,8.32
2022-12-09T03:28:38.306Z,9.45
2022-12-09T03:31:09.737Z,10.38
2022-12-09T03:36:11.376Z,8.82
2022-12-09T03:38:41.656Z,9.63
2022-12-09T03:41:16.020Z,9.25
2022-12-09T03:43:49.358Z,8.77
2022-12-09T03:46:19.438Z,8.25
2022-12-09T03:48:49.330Z,9.05
2022-12-09T03:51:22.787Z,8.65
2022-12-09T03:53:54.022Z,10.15
2022-12-09T03:56:25.211Z,8.73
2022-12-09T03:58:55.529Z,8.27
2022-12-09T04:01:26.029Z,9.00
2022-12-09T04:03:57.285Z,9.55
2022-12-09T04:06:28.431Z,9.35
2022-12-09T04:09:02.130Z,10.48
2022-12-09T04:11:31.684Z,9.55
2022-12-09T04:14:01.072Z,9.85
2022-12-09T04:16:31.117Z,10.38
2022-12-09T04:19:00.586Z,10.25
2022-12-09T04:21:33.017Z,10.73
2022-12-09T04:24:02.543Z,9.90
2022-12-09T04:26:31.817Z,9.77
2022-12-09T04:29:01.293Z,10.05
2022-12-09T04:31:30.792Z,10.80
2022-12-09T04:34:05.183Z,10.60
2022-12-09T04:36:39.815Z,11.30
2022-12-09T04:39:09.209Z,11.45
2022-12-09T04:41:38.398Z,10.90
2022-12-09T04:44:08.397Z,10.10
2022-12-09T04:46:37.661Z,12.27
2022-12-09T04:49:06.928Z,10.43
2022-12-09T04:51:39.843Z,10.77
2022-12-09T04:54:13.204Z,11.02
2022-12-09T04:56:42.674Z,9.35
2022-12-09T04:59:11.894Z,10.57
2022-12-09T05:01:42.979Z,10.30
2022-12-09T05:04:12.555Z,9.50
2022-12-09T05:06:42.439Z,9.93
2022-12-09T05:09:15.978Z,10.65
2022-12-09T05:11:45.328Z,10.50
2022-12-09T05:14:14.817Z,10.70
2022-12-09T05:16:44.090Z,10.93
2022-12-09T05:19:13.665Z,10.57
2022-12-09T05:21:44.224Z,11.10
2022-12-09T05:24:14.913Z,9.45
2022-12-09T05:26:44.085Z,10.50
2022-12-09T05:29:17.904Z,10.88
2022-12-09T05:31:51.682Z,10.38
2022-12-09T05:34:21.286Z,10.82
2022-12-09T05:36:51.911Z,11.45
2022-12-09T05:39:22.781Z,12.43
2022-12-09T05:41:52.263Z,11.05
2022-12-09T05:44:21.506Z,11.45
2022-12-09T05:46:50.611Z,13.07
2022-12-09T05:49:20.343Z,12.85
2022-12-09T05:51:49.773Z,12.07
2022-12-09T05:54:18.904Z,10.90
2022-12-09T05:56:49.805Z,12.13
2022-12-09T05:59:19.510Z,12.02
2022-12-09T06:01:48.817Z,11.50
2022-12-09T06:04:18.277Z,11.38
2022-12-09T06:06:48.084Z,11.48
2022-12-09T06:09:17.468Z,12.25
2022-12-09T06:11:47.273Z,10.52
2022-12-09T06:14:18.031Z,11.02
2022-12-09T06:16:47.434Z,11.18
2022-12-09T06:19:16.870Z,12.75
2022-12-09T06:21:46.684Z,11.55
2022-12-09T06:24:16.155Z,11.77
2022-12-09T06:26:45.545Z,11.27
2022-12-09T06:29:15.315Z,11.05
2022-12-09T06:31:46.284Z,10.55
2022-12-09T06:34:15.899Z,11.10
2022-12-09T06:36:45.256Z,12.23
2022-12-09T06:39:14.817Z,11.15
2022-12-09T06:41:44.563Z,12.23
2022-12-09T06:44:21.511Z,12.30
2022-12-09T06:46:55.249Z,12.18
2022-12-09T06:49:34.523Z,11.52
2022-12-09T06:52:09.141Z,10.57
2022-12-09T06:54:38.914Z,11.35
2022-12-09T06:57:08.493Z,11.93
2022-12-09T06:59:38.137Z,10.90
2022-12-09T07:02:09.972Z,12.18
2022-12-09T07:04:39.964Z,12.60
2022-12-09T07:07:25.941Z,13.23
2022-12-09T07:09:55.929Z,11.13
2022-12-09T07:12:37.181Z,11.27
2022-12-09T07:15:15.226Z,14.10
2022-12-09T07:17:52.889Z,11.68
2022-12-09T07:20:50.631Z,11.68
2022-12-09T07:23:20.251Z,12.68
2022-12-09T07:25:57.133Z,10.95
2022-12-09T07:28:26.957Z,10.98
2022-12-09T07:30:56.281Z,12.20
2022-12-09T07:33:27.108Z,13.70
2022-12-09T07:35:57.593Z,11.68
2022-12-09T07:38:27.839Z,11.90
2022-12-09T07:40:57.258Z,12.38
2022-12-09T07:43:31.745Z,13.73
2022-12-09T07:46:01.363Z,13.88
2022-12-09T07:48:36.938Z,14.13
2022-12-09T07:51:08.022Z,12.50
2022-12-09T07:53:37.941Z,12.60
2022-12-09T07:56:08.624Z,14.50
2022-12-09T07:58:38.370Z,12.85
2022-12-09T08:01:08.897Z,12.07
2022-12-09T08:03:42.638Z,14.43
2022-12-09T08:06:13.965Z,14.85
2022-12-09T08:08:44.279Z,12.98
2022-12-09T08:11:21.567Z,12.68
2022-12-09T08:13:58.918Z,13.20
2022-12-09T08:16:28.628Z,14.23
2022-12-09T08:19:04.756Z,13.80
2022-12-09T08:21:35.159Z,12.85
2022-12-09T08:24:07.824Z,15.13
2022-12-09T08:26:39.968Z,12.80
2022-12-09T08:29:11.006Z,14.50
2022-12-09T08:31:43.700Z,14.18
2022-12-09T08:34:16.146Z,14.15
2022-12-09T08:36:46.445Z,14.27
2022-12-09T08:39:16.419Z,14.35
2022-12-09T08:41:45.654Z,15.77
2022-12-09T08:44:16.247Z,15.13
2022-12-09T08:46:47.316Z,15.32
2022-12-09T08:49:28.282Z,17.60
2022-12-09T08:52:01.186Z,15.65
2022-12-09T08:54:35.799Z,14.75
2022-12-09T08:57:05.848Z,16.05
2022-12-09T08:59:41.887Z,13.95
2022-12-09T09:02:16.543Z,16.48
2022-12-09T09:04:47.781Z,14.80
2022-12-09T09:09:47.127Z,16.63
2022-12-09T09:12:16.791Z,16.15
2022-12-09T09:14:46.368Z,15.63
2022-12-09T09:17:18.977Z,16.05
2022-12-09T09:19:58.897Z,15.27
2022-12-09T09:22:32.680Z,16.38
2022-12-09T09:25:03.321Z,18.33
2022-12-09T09:27:33.541Z,17.67
2022-12-09T09:30:04.201Z,15.93
2022-12-09T09:32:34.601Z,15.88
2022-12-09T09:35:05.561Z,16.85
2022-12-09T09:37:34.985Z,17.42
2022-12-09T09:40:04.409Z,16.00
2022-12-09T09:42:37.950Z,16.35
2022-12-09T09:45:09.326Z,16.02
2022-12-09T09:47:40.854Z,15.95
2022-12-09T09:50:21.351Z,16.05
2022-12-09T09:52:53.902Z,16.02
2022-12-09T09:55:28.564Z,17.35
2022-12-09T09:58:00.281Z,17.10
2022-12-09T10:00:31.688Z,18.65
2022-12-09T10:03:02.510Z,25.67
2022-12-09T10:05:34.459Z,21.15
2022-12-09T10:10:41.098Z,15.43
2022-12-09T10:13:20.701Z,15.75
2022-12-09T10:15:58.676Z,16.65
2022-12-09T10:18:31.227Z,16.88
2022-12-09T10:21:19.443Z,16.08
2022-12-09T10:23:54.680Z,16.42
2022-12-09T10:26:26.471Z,17.75
2022-12-09T10:31:25.291Z,16.70
2022-12-09T10:33:55.362Z,15.95
2022-12-09T10:36:36.040Z,18.40
2022-12-09T10:39:06.250Z,16.02
2022-12-09T10:41:59.805Z,17.50
2022-12-09T10:44:29.724Z,16.60
2022-12-09T10:46:59.905Z,15.85
2022-12-09T10:49:29.769Z,17.00
2022-12-09T10:52:00.869Z,15.60
2022-12-09T10:54:47.685Z,18.67
2022-12-09T10:57:29.021Z,15.38
2022-12-09T11:00:01.778Z,16.10
2022-12-09T11:02:37.518Z,17.90
2022-12-09T11:05:25.506Z,13.77
2022-12-09T11:07:59.887Z,14.18
2022-12-09T11:10:38.324Z,14.98
2022-12-09T11:13:10.424Z,13.65
2022-12-09T11:15:47.955Z,13.48
2022-12-09T11:18:22.154Z,12.90
2022-12-09T11:21:27.562Z,14.30
2022-12-09T11:24:59.007Z,14.05
2022-12-09T11:27:30.429Z,13.57
2022-12-09T11:30:15.845Z,13.50
2022-12-09T11:32:55.552Z,15.95
2022-12-09T11:35:39.132Z,18.80
2022-12-09T11:38:21.453Z,17.42
2022-12-09T11:41:02.036Z,16.95
2022-12-09T11:43:33.203Z,19.42
2022-12-09T11:46:09.590Z,16.27
2022-12-09T11:48:43.638Z,16.98
2022-12-09T11:51:20.264Z,17.30
2022-12-09T11:54:03.684Z,15.07
2022-12-09T11:56:37.753Z,17.35
2022-12-09T11:59:12.331Z,16.98
2022-12-09T12:01:49.299Z,20.70
2022-12-09T12:04:21.161Z,18.05
2022-12-09T12:06:53.093Z,17.30
2022-12-09T12:09:29.853Z,15.68
2022-12-09T12:12:06.356Z,15.95
2022-12-09T12:14:37.926Z,18.83
2022-12-09T12:17:11.775Z,18.13
2022-12-09T12:19:43.091Z,17.08
2022-12-09T12:22:25.095Z,16.88
2022-12-09T12:25:18.454Z,18.85
2022-12-09T12:28:00.419Z,17.10
2022-12-09T12:30:35.648Z,19.67
2022-12-09T12:33:53.437Z,20.02
2022-12-09T12:36:12.556Z,18.25
2022-12-09T12:38:51.502Z,18.20
2022-12-09T12:44:52.112Z,17.52
2022-12-09T12:47:38.264Z,18.65
2022-12-09T12:50:33.455Z,20.23
2022-12-09T12:53:15.006Z,17.95
2022-12-09T12:55:49.060Z,16.85
2022-12-09T12:58:22.337Z,19.25
2022-12-09T13:00:56.495Z,16.42
2022-12-09T13:03:29.473Z,16.23
2022-12-09T13:06:00.028Z,17.17
2022-12-09T13:08:35.147Z,16.52
2022-12-09T13:11:09.034Z,15.35
2022-12-09T13:13:41.940Z,15.35
2022-12-09T13:16:15.734Z,17.33
2022-12-09T13:18:46.746Z,19.35
2022-12-09T13:21:16.408Z,15.27
2022-12-09T13:23:58.328Z,15.82
2022-12-09T13:26:33.082Z,17.13
2022-12-09T13:29:07.081Z,16.30
2022-12-09T13:31:37.318Z,16.25
2022-12-09T13:34:20.487Z,14.32
2022-12-09T13:36:52.034Z,15.70
2022-12-09T13:39:36.540Z,13.27
2022-12-09T13:42:24.098Z,14.20
2022-12-09T13:45:24.372Z,13.63
2022-12-09T13:47:54.639Z,13.60
2022-12-09T13:50:29.938Z,13.40
2022-12-09T13:53:01.219Z,13.20
2022-12-09T13:55:33.183Z,15.63
2022-12-09T14:00:33.209Z,13.82
2022-12-09T14:03:05.404Z,11.63
2022-12-09T14:05:38.102Z,14.75
2022-12-09T14:08:18.178Z,15.45
2022-12-09T14:10:50.290Z,14.25
2022-12-09T14:13:31.353Z,15.77
2022-12-09T14:16:11.824Z,13.70
2022-12-09T14:18:41.105Z,14.07
2022-12-09T14:21:30.852Z,14.05
2022-12-09T14:24:19.134Z,14.93
2022-12-09T14:26:49.118Z,15.32
2022-12-09T14:29:33.370Z,15.10
2022-12-09T14:32:04.927Z,16.27
2022-12-09T14:34:36.448Z,15.32
2022-12-09T14:37:23.861Z,14.82
2022-12-09T14:39:57.899Z,13.70
2022-12-09T14:42:31.531Z,11.98
2022-12-09T14:45:06.081Z,12.00
2022-12-09T14:47:40.608Z,11.65
2022-12-09T14:50:11.437Z,11.32
2022-12-09T14:52:50.866Z,14.52
2022-12-09T14:55:23.560Z,10.85
2022-12-09T14:57:53.375Z,10.20
2022-12-09T15:00:34.249Z,14.15
2022-12-09T15:05:58.423Z,12.52
2022-12-09T15:08:34.881Z,13.57
2022-12-09T15:11:07.566Z,12.73
2022-12-09T15:13:37.750Z,13.30
2022-12-09T15:16:10.116Z,12.52
2022-12-09T15:18:39.896Z,14.35
2022-12-09T15:21:09.365Z,14.73
2022-12-09T15:23:40.039Z,15.77
2022-12-09T15:26:18.971Z,16.13
2022-12-09T15:28:49.404Z,13.68
2022-12-09T15:31:20.270Z,14.88
2022-12-09T15:33:52.697Z,15.77
2022-12-09T15:36:26.197Z,15.88
2022-12-09T15:38:56.715Z,14.80
2022-12-09T15:41:46.680Z,15.73
2022-12-09T15:44:18.525Z,13.55
2022-12-09T15:46:49.349Z,17.15
2022-12-09T15:49:21.276Z,20.40
2022-12-09T15:51:51.767Z,22.13
2022-12-09T15:54:22.357Z,19.58
2022-12-09T15:56:56.157Z,18.40
2022-12-09T15:59:27.095Z,17.25
2022-12-09T16:01:57.896Z,18.90
2022-12-09T16:04:28.233Z,14.60
2022-12-09T16:06:57.616Z,15.93
2022-12-09T16:09:26.822Z,15.88
2022-12-09T16:11:57.234Z,16.05
2022-12-09T16:14:26.492Z,16.67
2022-12-09T16:16:57.382Z,16.80
2022-12-09T16:19:33.661Z,17.15
2022-12-09T16:22:04.514Z,16.10
2022-12-09T16:24:51.075Z,15.65
2022-12-09T16:27:29.532Z,15.80
2022-12-09T16:29:59.899Z,15.73
2022-12-09T16:32:31.739Z,19.45
2022-12-09T16:35:01.587Z,16.33
2022-12-09T16:37:37.616Z,17.67
2022-12-09T16:40:32.838Z,17.30
2022-12-09T16:43:16.761Z,16.65
2022-12-09T16:45:50.222Z,18.92
2022-12-09T16:48:20.423Z,18.67
2022-12-09T16:50:51.038Z,18.10
2022-12-09T16:53:22.026Z,18.85
2022-12-09T16:55:55.055Z,20.87
2022-12-09T16:58:26.722Z,22.27
2022-12-09T17:00:58.722Z,22.23
2022-12-09T17:03:33.984Z,20.95
2022-12-09T17:06:03.321Z,22.85
2022-12-09T17:08:33.569Z,22.73
2022-12-09T17:11:02.933Z,21.58
2022-12-09T17:13:32.263Z,22.73
2022-12-09T17:16:02.984Z,22.80
2022-12-09T17:18:32.657Z,22.17
2022-12-09T17:21:05.373Z,19.55
2022-12-09T17:23:39.702Z,19.63
2022-12-09T17:26:13.963Z,19.67
2022-12-09T17:28:43.763Z,21.52
2022-12-09T17:31:16.739Z,21.65
2022-12-09T17:33:46.477Z,21.73
2022-12-09T17:36:16.621Z,22.67
2022-12-09T17:38:46.363Z,20.95
2022-12-09T17:41:18.857Z,20.73
2022-12-09T17:43:48.390Z,21.48
2022-12-09T17:46:20.243Z,21.80
2022-12-09T17:48:49.652Z,20.88
2022-12-09T17:51:19.534Z,21.02
2022-12-09T17:53:50.308Z,23.08
2022-12-09T17:56:22.216Z,25.35
2022-12-09T17:58:56.942Z,22.40
2022-12-09T18:01:27.509Z,21.90
2022-12-09T18:04:04.320Z,22.55
2022-12-09T18:06:35.440Z,23.58
2022-12-09T18:09:05.545Z,24.20
2022-12-09T18:11:34.763Z,23.60
2022-12-09T18:14:06.781Z,23.05
2022-12-09T18:16:40.936Z,25.55
2022-12-09T18:19:13.120Z,26.55
2022-12-09T18:21:42.374Z,27.55
2022-12-09T18:24:13.751Z,24.52
2022-12-09T18:29:14.138Z,23.98
2022-12-09T18:31:46.131Z,25.65
2022-12-09T18:34:18.263Z,24.67
2022-12-09T18:36:47.686Z,25.83
2022-12-09T18:39:21.061Z,26.25
2022-12-09T18:41:53.542Z,25.80
2022-12-09T18:44:23.053Z,25.98
2022-12-09T18:46:55.705Z,28.42
2022-12-09T18:49:28.493Z,25.83
2022-12-09T18:51:58.453Z,26.85
2022-12-09T18:54:28.906Z,26.10
2022-12-09T18:56:58.586Z,25.03
2022-12-09T18:59:28.023Z,24.63
2022-12-09T19:01:59.223Z,24.95
2022-12-09T19:04:31.343Z,25.98
2022-12-09T19:07:02.218Z,28.27
2022-12-09T19:09:34.776Z,26.67
2022-12-09T19:12:44.764Z,29.48
2022-12-09T19:14:59.023Z,29.20
2022-12-09T19:17:30.851Z,27.15
2022-12-09T19:20:00.260Z,27.33
2022-12-09T19:22:30.477Z,27.05
2022-12-09T19:25:02.463Z,26.77
2022-12-09T19:27:31.714Z,27.08
2022-12-09T19:30:01.453Z,25.50
2022-12-09T19:32:52.535Z,24.35
2022-12-09T19:35:21.768Z,24.65
2022-12-09T19:37:54.406Z,24.27
2022-12-09T19:40:27.396Z,26.08
2022-12-09T19:42:56.621Z,24.23
2022-12-09T19:45:26.119Z,23.23
2022-12-09T19:47:57.042Z,23.48
2022-12-09T19:50:26.606Z,24.65
2022-12-09T19:52:56.093Z,23.77
2022-12-09T19:55:25.267Z,21.80
2022-12-09T19:57:54.945Z,24.52
2022-12-09T20:00:27.130Z,23.63
2022-12-09T20:02:58.338Z,25.00
2022-12-09T20:05:27.838Z,22.65
2022-12-09T20:07:57.887Z,22.23
2022-12-09T20:10:27.515Z,23.70
2022-12-09T20:13:00.387Z,23.33
2022-12-09T20:15:30.011Z,23.98
2022-12-09T20:18:04.262Z,24.63
2022-12-09T20:20:37.851Z,25.83
2022-12-09T20:23:10.523Z,22.90
2022-12-09T20:25:40.591Z,26.60
2022-12-09T20:28:10.357Z,26.58
2022-12-09T20:30:39.903Z,23.60
2022-12-09T20:33:11.939Z,23.92
2022-12-09T20:35:42.181Z,24.55
2022-12-09T20:38:12.131Z,22.65
2022-12-09T20:40:42.764Z,22.33
2022-12-09T20:43:12.733Z,20.50
2022-12-09T20:45:42.413Z,23.60
2022-12-09T20:48:17.932Z,20.90
2022-12-09T20:50:51.195Z,22.35
2022-12-09T20:53:37.397Z,22.40
2022-12-09T20:56:21.228Z,21.48
2022-12-09T20:58:55.139Z,22.17
2022-12-09T21:01:28.219Z,22.40
2022-12-09T21:04:00.323Z,19.17
2022-12-09T21:06:31.632Z,21.02
2022-12-09T21:09:02.246Z,20.60
2022-12-09T21:11:32.696Z,22.27
2022-12-09T21:14:03.830Z,19.15
2022-12-09T21:16:35.713Z,19.48
2022-12-09T21:19:07.415Z,21.10
2022-12-09T21:21:40.385Z,19.88
2022-12-09T21:24:11.625Z,17.60
2022-12-09T21:26:41.354Z,20.27
2022-12-09T21:29:12.878Z,21.42
2022-12-09T21:31:44.314Z,18.63
2022-12-09T21:36:45.541Z,18.92
2022-12-09T21:39:16.161Z,19.00
2022-12-09T21:41:46.102Z,16.63
2022-12-09T21:44:17.553Z,18.13
2022-12-09T21:46:47.393Z,18.65
2022-12-09T21:49:16.610Z,17.15
2022-12-09T21:51:47.688Z,17.50
2022-12-09T21:54:22.198Z,12.20
2022-12-09T21:56:52.642Z,17.98
2022-12-09T21:59:23.050Z,19.48
2022-12-09T22:01:52.507Z,19.88
2022-12-09T22:04:21.757Z,19.58
2022-12-09T22:06:52.822Z,17.85
2022-12-09T22:09:22.597Z,19.85
2022-12-09T22:11:53.258Z,17.20
2022-12-09T22:14:23.152Z,16.92
2022-12-09T22:16:52.442Z,18.45
2022-12-09T22:19:23.220Z,20.27
2022-12-09T22:21:56.333Z,19.52
2022-12-09T22:24:27.408Z,19.75
2022-12-09T22:26:56.756Z,19.20
2022-12-09T22:29:29.058Z,17.48
2022-12-09T22:31:59.446Z,17.77
2022-12-09T22:34:29.447Z,19.25
2022-12-09T22:37:21.277Z,17.60
2022-12-09T22:40:03.387Z,16.17
2022-12-09T22:42:33.296Z,19.45
2022-12-09T22:45:02.982Z,17.52
2022-12-09T22:47:33.424Z,14.52
2022-12-09T22:50:04.157Z,15.82
2022-12-09T22:52:35.645Z,16.50
2022-12-09T22:55:07.377Z,15.63
2022-12-09T22:57:37.003Z,14.15
2022-12-09T23:00:11.517Z,15.35
2022-12-09T23:02:40.767Z,15.15
2022-12-09T23:05:11.876Z,14.50
2022-12-09T23:07:43.228Z,15.73
2022-12-09T23:10:12.943Z,14.65
2022-12-09T23:12:42.333Z,15.63
2022-12-09T23:15:14.276Z,13.75
2022-12-09T23:17:43.965Z,12.85
2022-12-09T23:20:15.383Z,15.93
2022-12-09T23:22:46.670Z,15.50
2022-12-09T23:25:22.416Z,14.95
2022-12-09T23:27:51.475Z,15.77
2022-12-09T23:30:21.067Z,14.85
2022-12-09T23:32:58.102Z,14.32
2022-12-09T23:35:27.273Z,13.88
2022-12-09T23:37:58.106Z,15.93
2022-12-09T23:40:30.315Z,17.65
2022-12-09T23:42:59.520Z,15.48
2022-12-09T23:45:28.907Z,17.58
2022-12-09T23:47:58.849Z,17.30
2022-12-09T23:50:28.590Z,15.30
2022-12-09T23:52:59.508Z,15.13
2022-12-09T23:55:29.419Z,14.43
2022-12-09T23:57:58.996Z,13.30
